sensor_id;sensor_type;location;lat;lon;timestamp;P1;P2;P0
76049;PMS7003;64967;50.234;19.224;2023-09-19T00:00:55;10.25;9.50;7.75
76049;PMS7003;64967;50.234;19.224;2023-09-19T00:03:26;11.00;10.00;8.00
76049;PMS7003;64967;50.234;19.224;2023-09-19T00:05:55;7.00;7.00;5.00
76049;PMS7003;64967;50.234;19.224;2023-09-19T00:08:21;8.00;8.00;6.67
76049;PMS7003;64967;50.234;19.224;2023-09-19T00:10:48;14.75;14.00;10.00
76049;PMS7003;64967;50.234;19.224;2023-09-19T00:13:15;16.50;14.25;11.00
76049;PMS7003;64967;50.234;19.224;2023-09-19T00:15:44;11.25;11.00;9.00
76049;PMS7003;64967;50.234;19.224;2023-09-19T00:18:21;15.00;13.75;12.00
76049;PMS7003;64967;50.234;19.224;2023-09-19T00:20:50;17.50;15.25;11.25
76049;PMS7003;64967;50.234;19.224;2023-09-19T00:23:19;15.00;13.00;10.00
76049;PMS7003;64967;50.234;19.224;2023-09-19T00:25:46;19.25;16.75;11.75
76049;PMS7003;64967;50.234;19.224;2023-09-19T00:28:14;15.00;14.00;11.25
76049;PMS7003;64967;50.234;19.224;2023-09-19T00:30:44;15.00;14.00;12.00
76049;PMS7003;64967;50.234;19.224;2023-09-19T00:33:13;20.50;16.50;13.00
76049;PMS7003;64967;50.234;19.224;2023-09-19T00:35:49;24.75;20.00;14.75
76049;PMS7003;64967;50.234;19.224;2023-09-19T00:38:18;14.00;13.75;11.25
76049;PMS7003;64967;50.234;19.224;2023-09-19T00:40:48;18.00;15.75;12.25
76049;PMS7003;64967;50.234;19.224;2023-09-19T00:43:26;13.25;12.00;9.75
76049;PMS7003;64967;50.234;19.224;2023-09-19T00:45:56;11.00;10.67;8.33
76049;PMS7003;64967;50.234;19.224;2023-09-19T00:48:24;8.67;8.67;6.67
76049;PMS7003;64967;50.234;19.224;2023-09-19T00:50:54;8.00;8.00;7.00
76049;PMS7003;64967;50.234;19.224;2023-09-19T00:53:23;7.33;7.00;6.00
76049;PMS7003;64967;50.234;19.224;2023-09-19T00:55:52;7.00;7.00;5.67
76049;PMS7003;64967;50.234;19.224;2023-09-19T00:58:26;8.00;6.00;6.00
76049;PMS7003;64967;50.234;19.224;2023-09-19T01:01:03;5.00;5.00;4.00
76049;PMS7003;64967;50.234;19.224;2023-09-19T01:03:34;6.67;6.00;4.33
76049;PMS7003;64967;50.234;19.224;2023-09-19T01:06:03;5.00;5.00;5.00
76049;PMS7003;64967;50.234;19.224;2023-09-19T01:08:30;5.00;5.00;4.00
76049;PMS7003;64967;50.234;19.224;2023-09-19T01:11:12;7.00;6.00;5.00
76049;PMS7003;64967;50.234;19.224;2023-09-19T01:13:50;4.33;4.00;4.00
76049;PMS7003;64967;50.234;19.224;2023-09-19T01:22:13;4.00;4.00;3.33
76049;PMS7003;64967;50.234;19.224;2023-09-19T01:30:27;4.67;4.33;3.33
76049;PMS7003;64967;50.234;19.224;2023-09-19T01:32:59;5.00;4.00;3.33
76049;PMS7003;64967;50.234;19.224;2023-09-19T01:35:27;6.00;5.00;5.00
76049;PMS7003;64967;50.234;19.224;2023-09-19T01:38:03;6.33;6.00;6.00
76049;PMS7003;64967;50.234;19.224;2023-09-19T01:40:30;7.00;7.00;6.00
76049;PMS7003;64967;50.234;19.224;2023-09-19T01:46:21;12.00;10.33;7.67
76049;PMS7003;64967;50.234;19.224;2023-09-19T01:54:18;5.00;5.00;5.00
76049;PMS7003;64967;50.234;19.224;2023-09-19T01:59:35;2.33;2.33;2.00
76049;PMS7003;64967;50.234;19.224;2023-09-19T02:02:07;7.33;7.33;6.67
76049;PMS7003;64967;50.234;19.224;2023-09-19T02:04:35;6.67;6.33;5.00
76049;PMS7003;64967;50.234;19.224;2023-09-19T02:07:03;7.00;5.33;5.00
76049;PMS7003;64967;50.234;19.224;2023-09-19T02:09:34;6.33;5.00;3.33
76049;PMS7003;64967;50.234;19.224;2023-09-19T02:12:02;4.00;4.00;3.00
76049;PMS7003;64967;50.234;19.224;2023-09-19T02:14:30;4.33;4.33;4.00
76049;PMS7003;64967;50.234;19.224;2023-09-19T02:16:58;5.00;5.00;4.33
76049;PMS7003;64967;50.234;19.224;2023-09-19T02:19:27;5.00;5.00;3.33
76049;PMS7003;64967;50.234;19.224;2023-09-19T02:21:54;4.00;4.00;3.00
76049;PMS7003;64967;50.234;19.224;2023-09-19T02:24:21;4.67;4.00;4.00
76049;PMS7003;64967;50.234;19.224;2023-09-19T02:26:48;4.00;4.00;4.00
76049;PMS7003;64967;50.234;19.224;2023-09-19T02:29:15;7.33;7.33;6.33
76049;PMS7003;64967;50.234;19.224;2023-09-19T02:31:42;7.00;6.00;5.00
76049;PMS7003;64967;50.234;19.224;2023-09-19T02:34:09;7.00;6.33;5.00
76049;PMS7003;64967;50.234;19.224;2023-09-19T02:36:37;5.00;5.00;4.33
76049;PMS7003;64967;50.234;19.224;2023-09-19T02:39:06;7.00;6.67;5.00
76049;PMS7003;64967;50.234;19.224;2023-09-19T02:41:34;6.33;5.33;4.33
76049;PMS7003;64967;50.234;19.224;2023-09-19T02:44:01;3.00;3.00;2.33
76049;PMS7003;64967;50.234;19.224;2023-09-19T02:46:28;6.00;6.00;5.00
76049;PMS7003;64967;50.234;19.224;2023-09-19T02:48:56;6.00;4.67;4.00
76049;PMS7003;64967;50.234;19.224;2023-09-19T02:51:23;11.00;10.00;8.33
76049;PMS7003;64967;50.234;19.224;2023-09-19T02:53:50;10.00;9.33;7.33
76049;PMS7003;64967;50.234;19.224;2023-09-19T02:56:21;8.00;7.00;6.67
76049;PMS7003;64967;50.234;19.224;2023-09-19T02:58:49;8.33;8.33;6.67
76049;PMS7003;64967;50.234;19.224;2023-09-19T03:01:16;6.33;4.67;4.00
76049;PMS7003;64967;50.234;19.224;2023-09-19T03:03:47;8.00;6.00;5.00
76049;PMS7003;64967;50.234;19.224;2023-09-19T03:06:14;5.67;4.67;4.00
76049;PMS7003;64967;50.234;19.224;2023-09-19T03:08:41;4.33;4.00;3.67
76049;PMS7003;64967;50.234;19.224;2023-09-19T03:11:09;5.00;4.67;4.67
76049;PMS7003;64967;50.234;19.224;2023-09-19T03:13:42;7.33;7.00;6.00
76049;PMS7003;64967;50.234;19.224;2023-09-19T03:16:14;6.00;6.00;5.00
76049;PMS7003;64967;50.234;19.224;2023-09-19T03:18:41;5.33;5.33;5.00
76049;PMS7003;64967;50.234;19.224;2023-09-19T03:21:08;4.67;4.67;4.00
76049;PMS7003;64967;50.234;19.224;2023-09-19T03:23:38;6.33;6.00;5.00
76049;PMS7003;64967;50.234;19.224;2023-09-19T03:26:05;7.00;6.00;5.00
76049;PMS7003;64967;50.234;19.224;2023-09-19T03:28:33;5.67;5.00;3.00
76049;PMS7003;64967;50.234;19.224;2023-09-19T03:31:04;13.67;12.33;9.33
76049;PMS7003;64967;50.234;19.224;2023-09-19T03:33:32;13.00;11.67;7.67
76049;PMS7003;64967;50.234;19.224;2023-09-19T03:36:01;7.00;6.33;4.00
76049;PMS7003;64967;50.234;19.224;2023-09-19T03:38:35;10.67;8.00;7.00
76049;PMS7003;64967;50.234;19.224;2023-09-19T03:41:02;6.67;6.00;5.33
76049;PMS7003;64967;50.234;19.224;2023-09-19T03:43:29;7.33;6.33;6.00
76049;PMS7003;64967;50.234;19.224;2023-09-19T03:46:01;6.67;6.67;6.00
76049;PMS7003;64967;50.234;19.224;2023-09-19T03:48:30;8.00;8.00;6.00
76049;PMS7003;64967;50.234;19.224;2023-09-19T03:50:57;6.00;6.00;5.00
76049;PMS7003;64967;50.234;19.224;2023-09-19T03:53:25;6.00;5.00;4.67
76049;PMS7003;64967;50.234;19.224;2023-09-19T03:55:52;9.33;8.67;6.33
76049;PMS7003;64967;50.234;19.224;2023-09-19T03:58:20;7.67;7.33;6.00
76049;PMS7003;64967;50.234;19.224;2023-09-19T04:00:47;9.33;9.00;7.00
76049;PMS7003;64967;50.234;19.224;2023-09-19T04:03:16;5.33;5.00;5.00
76049;PMS7003;64967;50.234;19.224;2023-09-19T04:05:47;7.33;7.00;6.00
76049;PMS7003;64967;50.234;19.224;2023-09-19T04:08:14;9.33;9.00;7.00
76049;PMS7003;64967;50.234;19.224;2023-09-19T04:10:41;8.00;8.00;7.00
76049;PMS7003;64967;50.234;19.224;2023-09-19T04:13:09;6.33;6.00;5.00
76049;PMS7003;64967;50.234;19.224;2023-09-19T04:15:36;8.00;8.00;7.00
76049;PMS7003;64967;50.234;19.224;2023-09-19T04:18:04;3.00;3.00;2.00
76049;PMS7003;64967;50.234;19.224;2023-09-19T04:20:30;7.00;7.00;5.67
76049;PMS7003;64967;50.234;19.224;2023-09-19T04:22:58;6.00;6.00;5.00
76049;PMS7003;64967;50.234;19.224;2023-09-19T04:25:26;7.33;7.00;5.00
76049;PMS7003;64967;50.234;19.224;2023-09-19T04:27:54;7.67;6.67;5.33
76049;PMS7003;64967;50.234;19.224;2023-09-19T04:30:21;7.33;6.67;5.33
76049;PMS7003;64967;50.234;19.224;2023-09-19T04:32:48;8.67;8.67;7.00
76049;PMS7003;64967;50.234;19.224;2023-09-19T04:35:17;9.33;8.67;7.33
76049;PMS7003;64967;50.234;19.224;2023-09-19T04:37:44;7.67;7.00;5.00
76049;PMS7003;64967;50.234;19.224;2023-09-19T04:40:11;5.00;5.00;5.00
76049;PMS7003;64967;50.234;19.224;2023-09-19T04:42:40;6.00;6.00;5.00
76049;PMS7003;64967;50.234;19.224;2023-09-19T04:45:08;3.33;3.33;3.00
76049;PMS7003;64967;50.234;19.224;2023-09-19T04:47:36;9.00;9.00;7.67
76049;PMS7003;64967;50.234;19.224;2023-09-19T04:50:08;5.67;5.00;3.00
76049;PMS7003;64967;50.234;19.224;2023-09-19T04:52:43;5.33;5.33;4.00
76049;PMS7003;64967;50.234;19.224;2023-09-19T04:55:12;7.00;5.67;4.67
76049;PMS7003;64967;50.234;19.224;2023-09-19T04:57:45;4.00;4.00;3.00
76049;PMS7003;64967;50.234;19.224;2023-09-19T05:00:18;5.33;5.33;4.33
76049;PMS7003;64967;50.234;19.224;2023-09-19T05:02:49;5.00;5.00;4.00
76049;PMS7003;64967;50.234;19.224;2023-09-19T05:05:18;7.33;6.33;5.33
76049;PMS7003;64967;50.234;19.224;2023-09-19T05:07:49;8.00;7.33;6.00
76049;PMS7003;64967;50.234;19.224;2023-09-19T05:10:17;8.00;8.00;6.67
76049;PMS7003;64967;50.234;19.224;2023-09-19T05:12:47;7.33;7.33;5.67
76049;PMS7003;64967;50.234;19.224;2023-09-19T05:15:14;10.00;9.67;7.67
76049;PMS7003;64967;50.234;19.224;2023-09-19T05:17:52;5.00;5.00;4.00
76049;PMS7003;64967;50.234;19.224;2023-09-19T05:20:23;18.00;17.25;11.50
76049;PMS7003;64967;50.234;19.224;2023-09-19T05:23:00;13.00;13.00;9.00
76049;PMS7003;64967;50.234;19.224;2023-09-19T05:25:29;14.00;13.25;10.50
76049;PMS7003;64967;50.234;19.224;2023-09-19T05:27:58;19.25;17.00;12.00
76049;PMS7003;64967;50.234;19.224;2023-09-19T05:30:25;20.25;16.25;13.25
76049;PMS7003;64967;50.234;19.224;2023-09-19T05:32:53;19.00;17.00;13.75
76049;PMS7003;64967;50.234;19.224;2023-09-19T05:35:21;17.25;16.25;12.50
76049;PMS7003;64967;50.234;19.224;2023-09-19T05:37:50;17.00;16.00;12.00
76049;PMS7003;64967;50.234;19.224;2023-09-19T05:40:18;17.50;15.50;11.50
76049;PMS7003;64967;50.234;19.224;2023-09-19T05:42:45;14.75;14.00;11.00
76049;PMS7003;64967;50.234;19.224;2023-09-19T05:45:13;13.25;11.00;10.00
76049;PMS7003;64967;50.234;19.224;2023-09-19T05:47:40;15.00;14.00;11.00
76049;PMS7003;64967;50.234;19.224;2023-09-19T05:50:12;13.67;13.33;10.00
76049;PMS7003;64967;50.234;19.224;2023-09-19T05:52:39;10.00;10.00;8.67
76049;PMS7003;64967;50.234;19.224;2023-09-19T05:55:07;11.67;10.00;9.00
76049;PMS7003;64967;50.234;19.224;2023-09-19T05:57:34;16.75;14.50;11.00
76049;PMS7003;64967;50.234;19.224;2023-09-19T06:00:01;13.00;13.00;10.00
76049;PMS7003;64967;50.234;19.224;2023-09-19T06:02:30;13.67;13.67;9.67
76049;PMS7003;64967;50.234;19.224;2023-09-19T06:04:57;11.00;11.00;8.67
76049;PMS7003;64967;50.234;19.224;2023-09-19T06:07:23;10.67;10.67;9.00
76049;PMS7003;64967;50.234;19.224;2023-09-19T06:09:52;12.67;11.00;8.00
76049;PMS7003;64967;50.234;19.224;2023-09-19T06:12:20;10.67;10.67;7.33
76049;PMS7003;64967;50.234;19.224;2023-09-19T06:14:46;9.33;9.00;8.00
76049;PMS7003;64967;50.234;19.224;2023-09-19T06:17:14;10.67;10.00;9.00
76049;PMS7003;64967;50.234;19.224;2023-09-19T06:19:41;11.00;9.67;7.00
76049;PMS7003;64967;50.234;19.224;2023-09-19T06:22:15;10.33;10.33;8.33
76049;PMS7003;64967;50.234;19.224;2023-09-19T06:24:45;16.00;13.50;9.75
76049;PMS7003;64967;50.234;19.224;2023-09-19T06:27:13;15.67;13.00;9.00
76049;PMS7003;64967;50.234;19.224;2023-09-19T06:29:40;16.25;15.50;11.50
76049;PMS7003;64967;50.234;19.224;2023-09-19T06:32:10;15.75;15.00;12.00
76049;PMS7003;64967;50.234;19.224;2023-09-19T06:34:37;13.67;13.00;12.00
76049;PMS7003;64967;50.234;19.224;2023-09-19T06:37:05;21.50;20.75;15.00
76049;PMS7003;64967;50.234;19.224;2023-09-19T06:39:32;21.50;20.00;15.50
76049;PMS7003;64967;50.234;19.224;2023-09-19T06:41:59;18.50;16.75;12.75
76049;PMS7003;64967;50.234;19.224;2023-09-19T06:44:28;27.00;20.75;13.50
76049;PMS7003;64967;50.234;19.224;2023-09-19T06:46:56;26.50;22.25;17.25
76049;PMS7003;64967;50.234;19.224;2023-09-19T06:49:22;26.00;20.00;13.75
76049;PMS7003;64967;50.234;19.224;2023-09-19T06:51:49;18.25;18.00;13.50
76049;PMS7003;64967;50.234;19.224;2023-09-19T06:54:16;15.75;13.00;10.25
76049;PMS7003;64967;50.234;19.224;2023-09-19T06:56:44;14.25;14.25;12.00
76049;PMS7003;64967;50.234;19.224;2023-09-19T06:59:11;16.00;14.75;10.50
76049;PMS7003;64967;50.234;19.224;2023-09-19T07:01:40;16.00;14.75;12.50
76049;PMS7003;64967;50.234;19.224;2023-09-19T07:04:08;14.25;13.25;10.25
76049;PMS7003;64967;50.234;19.224;2023-09-19T07:06:35;11.00;10.33;8.67
76049;PMS7003;64967;50.234;19.224;2023-09-19T07:09:02;13.00;11.00;9.00
76049;PMS7003;64967;50.234;19.224;2023-09-19T07:11:28;14.75;13.00;10.25
76049;PMS7003;64967;50.234;19.224;2023-09-19T07:13:57;14.67;13.67;10.00
76049;PMS7003;64967;50.234;19.224;2023-09-19T07:16:24;11.67;10.00;8.00
76049;PMS7003;64967;50.234;19.224;2023-09-19T07:18:56;6.67;6.33;3.67
76049;PMS7003;64967;50.234;19.224;2023-09-19T07:21:23;11.33;9.67;8.00
76049;PMS7003;64967;50.234;19.224;2023-09-19T07:23:51;13.25;13.00;10.00
76049;PMS7003;64967;50.234;19.224;2023-09-19T07:26:18;9.00;9.00;7.00
76049;PMS7003;64967;50.234;19.224;2023-09-19T07:28:45;13.00;13.00;10.00
76049;PMS7003;64967;50.234;19.224;2023-09-19T07:31:12;11.00;9.33;7.00
76049;PMS7003;64967;50.234;19.224;2023-09-19T07:33:40;10.00;9.67;7.00
76049;PMS7003;64967;50.234;19.224;2023-09-19T07:36:09;8.67;8.00;7.00
76049;PMS7003;64967;50.234;19.224;2023-09-19T07:38:37;13.00;11.00;8.00
76049;PMS7003;64967;50.234;19.224;2023-09-19T07:41:04;8.33;7.00;4.33
76049;PMS7003;64967;50.234;19.224;2023-09-19T07:43:31;9.33;8.33;7.00
76049;PMS7003;64967;50.234;19.224;2023-09-19T07:46:06;10.67;9.67;7.00
76049;PMS7003;64967;50.234;19.224;2023-09-19T07:48:35;9.67;9.00;7.67
76049;PMS7003;64967;50.234;19.224;2023-09-19T07:51:04;9.67;9.67;8.00
76049;PMS7003;64967;50.234;19.224;2023-09-19T07:53:33;6.00;6.00;5.00
76049;PMS7003;64967;50.234;19.224;2023-09-19T07:56:08;10.00;8.00;7.00
76049;PMS7003;64967;50.234;19.224;2023-09-19T07:58:38;10.00;9.67;7.00
76049;PMS7003;64967;50.234;19.224;2023-09-19T08:01:08;7.67;7.67;6.33
76049;PMS7003;64967;50.234;19.224;2023-09-19T08:03:36;10.67;8.67;7.00
76049;PMS7003;64967;50.234;19.224;2023-09-19T08:06:09;7.33;6.67;5.00
76049;PMS7003;64967;50.234;19.224;2023-09-19T08:08:36;9.00;6.67;6.00
76049;PMS7003;64967;50.234;19.224;2023-09-19T08:11:04;8.67;8.00;6.00
76049;PMS7003;64967;50.234;19.224;2023-09-19T08:13:38;8.00;7.00;5.00
76049;PMS7003;64967;50.234;19.224;2023-09-19T08:16:10;6.00;6.00;5.00
76049;PMS7003;64967;50.234;19.224;2023-09-19T08:18:37;6.00;6.00;5.00
76049;PMS7003;64967;50.234;19.224;2023-09-19T08:21:06;6.33;6.00;5.00
76049;PMS7003;64967;50.234;19.224;2023-09-19T08:23:37;7.00;5.67;4.67
76049;PMS7003;64967;50.234;19.224;2023-09-19T08:26:08;6.00;5.00;5.00
76049;PMS7003;64967;50.234;19.224;2023-09-19T08:28:35;5.67;5.00;4.00
76049;PMS7003;64967;50.234;19.224;2023-09-19T08:31:03;4.00;4.00;2.00
76049;PMS7003;64967;50.234;19.224;2023-09-19T08:33:33;6.00;4.67;4.00
76049;PMS7003;64967;50.234;19.224;2023-09-19T08:36:02;6.00;5.67;5.33
76049;PMS7003;64967;50.234;19.224;2023-09-19T08:38:31;4.00;4.00;3.33
76049;PMS7003;64967;50.234;19.224;2023-09-19T08:40:59;3.00;3.00;3.00
76049;PMS7003;64967;50.234;19.224;2023-09-19T08:43:27;7.00;6.67;6.00
76049;PMS7003;64967;50.234;19.224;2023-09-19T08:48:58;2.00;2.00;2.00
76049;PMS7003;64967;50.234;19.224;2023-09-19T08:51:42;2.67;2.33;1.67
76049;PMS7003;64967;50.234;19.224;2023-09-19T08:54:22;3.00;3.00;2.00
76049;PMS7003;64967;50.234;19.224;2023-09-19T08:56:55;3.00;2.67;2.00
76049;PMS7003;64967;50.234;19.224;2023-09-19T08:59:28;2.00;2.00;2.00
76049;PMS7003;64967;50.234;19.224;2023-09-19T09:01:56;3.00;3.00;2.67
76049;PMS7003;64967;50.234;19.224;2023-09-19T09:04:24;3.33;3.00;2.00
76049;PMS7003;64967;50.234;19.224;2023-09-19T09:06:52;3.33;3.00;2.00
76049;PMS7003;64967;50.234;19.224;2023-09-19T09:09:21;3.00;2.00;2.00
76049;PMS7003;64967;50.234;19.224;2023-09-19T09:11:48;4.00;4.00;3.00
76049;PMS7003;64967;50.234;19.224;2023-09-19T09:14:20;2.00;2.00;2.00
76049;PMS7003;64967;50.234;19.224;2023-09-19T09:16:48;3.00;3.00;2.33
76049;PMS7003;64967;50.234;19.224;2023-09-19T09:19:15;5.00;4.00;3.67
76049;PMS7003;64967;50.234;19.224;2023-09-19T09:21:51;5.67;4.00;3.00
76049;PMS7003;64967;50.234;19.224;2023-09-19T09:24:28;5.33;4.00;4.00
76049;PMS7003;64967;50.234;19.224;2023-09-19T09:26:56;6.00;5.00;4.33
76049;PMS7003;64967;50.234;19.224;2023-09-19T09:32:16;5.00;5.00;4.00
76049;PMS7003;64967;50.234;19.224;2023-09-19T09:34:52;4.33;3.00;3.00
76049;PMS7003;64967;50.234;19.224;2023-09-19T09:37:24;5.00;4.67;4.00
76049;PMS7003;64967;50.234;19.224;2023-09-19T09:39:56;6.67;5.00;4.00
76049;PMS7003;64967;50.234;19.224;2023-09-19T09:42:46;5.33;5.00;4.33
76049;PMS7003;64967;50.234;19.224;2023-09-19T09:48:04;5.00;5.00;4.00
76049;PMS7003;64967;50.234;19.224;2023-09-19T09:50:48;5.33;5.00;4.00
76049;PMS7003;64967;50.234;19.224;2023-09-19T09:53:22;6.00;6.00;4.00
76049;PMS7003;64967;50.234;19.224;2023-09-19T09:58:33;5.00;5.00;4.00
76049;PMS7003;64967;50.234;19.224;2023-09-19T10:01:04;3.33;3.33;3.00
76049;PMS7003;64967;50.234;19.224;2023-09-19T10:03:42;3.33;3.33;3.00
76049;PMS7003;64967;50.234;19.224;2023-09-19T10:06:16;4.33;4.33;4.00
76049;PMS7003;64967;50.234;19.224;2023-09-19T10:12:07;6.33;4.33;4.00
76049;PMS7003;64967;50.234;19.224;2023-09-19T10:14:39;4.00;4.00;3.00
76049;PMS7003;64967;50.234;19.224;2023-09-19T10:17:10;5.33;5.00;4.00
76049;PMS7003;64967;50.234;19.224;2023-09-19T10:19:50;5.00;4.67;4.00
76049;PMS7003;64967;50.234;19.224;2023-09-19T10:22:31;4.00;4.00;3.00
76049;PMS7003;64967;50.234;19.224;2023-09-19T10:25:02;5.00;4.00;3.00
76049;PMS7003;64967;50.234;19.224;2023-09-19T10:27:33;4.00;4.00;3.00
76049;PMS7003;64967;50.234;19.224;2023-09-19T10:30:07;3.00;3.00;2.00
76049;PMS7003;64967;50.234;19.224;2023-09-19T10:32:38;3.00;3.00;2.00
76049;PMS7003;64967;50.234;19.224;2023-09-19T10:35:07;4.00;3.67;2.33
76049;PMS7003;64967;50.234;19.224;2023-09-19T10:37:39;3.33;3.00;2.00
76049;PMS7003;64967;50.234;19.224;2023-09-19T10:40:11;4.00;3.33;3.00
76049;PMS7003;64967;50.234;19.224;2023-09-19T10:42:42;3.00;3.00;2.00
76049;PMS7003;64967;50.234;19.224;2023-09-19T10:45:13;2.33;2.33;2.00
76049;PMS7003;64967;50.234;19.224;2023-09-19T10:47:43;4.00;3.67;3.00
76049;PMS7003;64967;50.234;19.224;2023-09-19T10:50:16;3.33;3.00;2.00
76049;PMS7003;64967;50.234;19.224;2023-09-19T10:52:48;2.33;2.00;2.00
76049;PMS7003;64967;50.234;19.224;2023-09-19T10:55:18;3.00;2.00;2.00
76049;PMS7003;64967;50.234;19.224;2023-09-19T10:57:47;3.00;3.00;3.00
76049;PMS7003;64967;50.234;19.224;2023-09-19T11:00:14;2.00;2.00;1.33
76049;PMS7003;64967;50.234;19.224;2023-09-19T11:05:36;3.00;3.00;2.00
76049;PMS7003;64967;50.234;19.224;2023-09-19T11:08:07;2.33;2.33;2.00
76049;PMS7003;64967;50.234;19.224;2023-09-19T11:10:50;3.33;3.33;2.67
76049;PMS7003;64967;50.234;19.224;2023-09-19T11:13:24;2.67;2.33;2.00
76049;PMS7003;64967;50.234;19.224;2023-09-19T11:26:50;4.33;3.67;3.00
76049;PMS7003;64967;50.234;19.224;2023-09-19T11:29:27;7.33;5.00;4.00
76049;PMS7003;64967;50.234;19.224;2023-09-19T11:31:56;7.33;5.00;4.00
76049;PMS7003;64967;50.234;19.224;2023-09-19T11:40:26;4.00;4.00;4.00
76049;PMS7003;64967;50.234;19.224;2023-09-19T11:42:43;6.00;4.33;3.33
76049;PMS7003;64967;50.234;19.224;2023-09-19T11:48:13;5.00;4.00;3.00
76049;PMS7003;64967;50.234;19.224;2023-09-19T11:50:42;4.00;4.00;3.00
76049;PMS7003;64967;50.234;19.224;2023-09-19T11:53:13;3.33;3.33;3.00
76049;PMS7003;64967;50.234;19.224;2023-09-19T11:55:43;4.00;4.00;3.00
76049;PMS7003;64967;50.234;19.224;2023-09-19T11:58:12;3.00;3.00;3.00
76049;PMS7003;64967;50.234;19.224;2023-09-19T12:00:43;2.67;2.67;2.33
76049;PMS7003;64967;50.234;19.224;2023-09-19T12:03:12;3.67;3.00;2.00
76049;PMS7003;64967;50.234;19.224;2023-09-19T12:05:41;3.00;3.00;2.00
76049;PMS7003;64967;50.234;19.224;2023-09-19T12:08:08;3.00;3.00;2.00
76049;PMS7003;64967;50.234;19.224;2023-09-19T12:10:47;3.00;2.00;2.00
76049;PMS7003;64967;50.234;19.224;2023-09-19T12:13:18;4.00;2.00;2.00
76049;PMS7003;64967;50.234;19.224;2023-09-19T12:15:47;2.33;2.00;1.00
76049;PMS7003;64967;50.234;19.224;2023-09-19T12:18:27;2.00;2.00;2.00
76049;PMS7003;64967;50.234;19.224;2023-09-19T12:20:57;3.00;3.00;2.67
76049;PMS7003;64967;50.234;19.224;2023-09-19T12:23:24;3.67;3.00;3.00
76049;PMS7003;64967;50.234;19.224;2023-09-19T12:25:54;2.67;2.67;2.00
76049;PMS7003;64967;50.234;19.224;2023-09-19T12:28:25;2.00;2.00;2.00
76049;PMS7003;64967;50.234;19.224;2023-09-19T12:30:53;3.33;3.00;2.00
76049;PMS7003;64967;50.234;19.224;2023-09-19T12:33:21;6.00;5.00;4.67
76049;PMS7003;64967;50.234;19.224;2023-09-19T12:35:52;2.67;2.67;2.00
76049;PMS7003;64967;50.234;19.224;2023-09-19T12:38:26;3.00;3.00;2.00
76049;PMS7003;64967;50.234;19.224;2023-09-19T12:41:01;2.33;2.33;2.00
76049;PMS7003;64967;50.234;19.224;2023-09-19T12:43:29;3.00;3.00;2.00
76049;PMS7003;64967;50.234;19.224;2023-09-19T12:45:59;2.33;2.33;2.00
76049;PMS7003;64967;50.234;19.224;2023-09-19T12:48:27;2.00;2.00;2.00
76049;PMS7003;64967;50.234;19.224;2023-09-19T12:53:34;2.00;2.00;2.00
76049;PMS7003;64967;50.234;19.224;2023-09-19T12:56:08;3.00;3.00;2.33
76049;PMS7003;64967;50.234;19.224;2023-09-19T13:01:22;4.00;3.00;2.33
76049;PMS7003;64967;50.234;19.224;2023-09-19T13:04:13;3.33;3.00;2.67
76049;PMS7003;64967;50.234;19.224;2023-09-19T13:06:52;4.00;4.00;3.00
76049;PMS7003;64967;50.234;19.224;2023-09-19T13:09:20;2.00;2.00;2.00
76049;PMS7003;64967;50.234;19.224;2023-09-19T13:11:48;4.33;4.00;3.00
76049;PMS7003;64967;50.234;19.224;2023-09-19T13:14:24;2.33;2.33;2.00
76049;PMS7003;64967;50.234;19.224;2023-09-19T13:19:42;4.00;4.00;3.00
76049;PMS7003;64967;50.234;19.224;2023-09-19T13:25:11;2.67;2.67;2.33
76049;PMS7003;64967;50.234;19.224;2023-09-19T13:27:48;4.00;3.00;3.00
76049;PMS7003;64967;50.234;19.224;2023-09-19T13:30:19;4.00;3.00;3.00
76049;PMS7003;64967;50.234;19.224;2023-09-19T13:32:46;3.00;2.33;2.00
76049;PMS7003;64967;50.234;19.224;2023-09-19T13:35:14;2.00;2.00;2.00
76049;PMS7003;64967;50.234;19.224;2023-09-19T13:37:42;4.00;4.00;3.33
76049;PMS7003;64967;50.234;19.224;2023-09-19T13:40:11;4.33;4.33;3.00
76049;PMS7003;64967;50.234;19.224;2023-09-19T13:42:39;3.00;3.00;3.00
76049;PMS7003;64967;50.234;19.224;2023-09-19T13:45:06;5.67;5.00;4.67
76049;PMS7003;64967;50.234;19.224;2023-09-19T13:47:34;4.00;4.00;4.00
76049;PMS7003;64967;50.234;19.224;2023-09-19T13:50:02;4.00;4.00;4.00
76049;PMS7003;64967;50.234;19.224;2023-09-19T13:52:31;6.00;5.33;5.00
76049;PMS7003;64967;50.234;19.224;2023-09-19T14:35:43;6.33;4.00;4.00
76049;PMS7003;64967;50.234;19.224;2023-09-19T14:38:14;3.33;3.33;3.00
76049;PMS7003;64967;50.234;19.224;2023-09-19T14:40:41;4.67;4.00;4.00
76049;PMS7003;64967;50.234;19.224;2023-09-19T14:43:08;4.00;4.00;3.00
76049;PMS7003;64967;50.234;19.224;2023-09-19T14:45:35;4.33;4.33;4.00
76049;PMS7003;64967;50.234;19.224;2023-09-19T14:48:02;4.00;4.00;3.67
76049;PMS7003;64967;50.234;19.224;2023-09-19T14:50:31;4.00;4.00;3.00
76049;PMS7003;64967;50.234;19.224;2023-09-19T14:52:59;3.00;3.00;2.67
76049;PMS7003;64967;50.234;19.224;2023-09-19T14:55:28;1.00;1.00;0.67
76049;PMS7003;64967;50.234;19.224;2023-09-19T14:57:55;3.00;3.00;2.00
76049;PMS7003;64967;50.234;19.224;2023-09-19T15:00:24;2.00;2.00;2.00
76049;PMS7003;64967;50.234;19.224;2023-09-19T15:02:51;3.00;3.00;3.00
76049;PMS7003;64967;50.234;19.224;2023-09-19T15:05:19;3.00;2.00;2.00
76049;PMS7003;64967;50.234;19.224;2023-09-19T15:07:46;3.00;3.00;3.00
76049;PMS7003;64967;50.234;19.224;2023-09-19T15:10:13;4.00;3.00;2.00
76049;PMS7003;64967;50.234;19.224;2023-09-19T15:12:40;3.00;3.00;2.00
76049;PMS7003;64967;50.234;19.224;2023-09-19T15:15:07;3.00;3.00;3.00
76049;PMS7003;64967;50.234;19.224;2023-09-19T15:17:36;3.00;3.00;2.00
76049;PMS7003;64967;50.234;19.224;2023-09-19T15:20:08;4.00;4.00;3.00
76049;PMS7003;64967;50.234;19.224;2023-09-19T15:22:40;3.00;3.00;3.00
76049;PMS7003;64967;50.234;19.224;2023-09-19T15:25:08;5.00;5.00;4.00
76049;PMS7003;64967;50.234;19.224;2023-09-19T15:27:34;4.67;3.67;2.33
76049;PMS7003;64967;50.234;19.224;2023-09-19T15:30:03;4.00;4.00;3.00
76049;PMS7003;64967;50.234;19.224;2023-09-19T15:32:31;3.00;3.00;2.00
76049;PMS7003;64967;50.234;19.224;2023-09-19T15:34:58;2.00;2.00;2.00
76049;PMS7003;64967;50.234;19.224;2023-09-19T15:37:25;4.00;4.00;4.00
76049;PMS7003;64967;50.234;19.224;2023-09-19T15:39:53;3.00;3.00;2.00
76049;PMS7003;64967;50.234;19.224;2023-09-19T15:42:19;1.33;1.00;1.00
76049;PMS7003;64967;50.234;19.224;2023-09-19T15:44:46;2.67;2.67;2.00
76049;PMS7003;64967;50.234;19.224;2023-09-19T15:47:16;1.00;1.00;1.00
76049;PMS7003;64967;50.234;19.224;2023-09-19T15:49:43;2.67;2.00;2.00
76049;PMS7003;64967;50.234;19.224;2023-09-19T15:52:10;1.00;0.67;0.00
76049;PMS7003;64967;50.234;19.224;2023-09-19T15:54:37;1.00;1.00;1.00
76049;PMS7003;64967;50.234;19.224;2023-09-19T15:57:08;1.00;1.00;0.67
76049;PMS7003;64967;50.234;19.224;2023-09-19T15:59:35;1.00;1.00;1.00
76049;PMS7003;64967;50.234;19.224;2023-09-19T16:02:02;2.00;2.00;2.00
76049;PMS7003;64967;50.234;19.224;2023-09-19T16:04:29;1.00;1.00;0.33
76049;PMS7003;64967;50.234;19.224;2023-09-19T16:07:00;1.00;1.00;0.00
76049;PMS7003;64967;50.234;19.224;2023-09-19T16:09:28;2.00;1.00;0.00